createdAt,value
2019-01-10T00:00:34.160Z,10.00
2019-01-10T00:03:03.263Z,9.03
2019-01-10T00:05:32.381Z,7.13
2019-01-10T00:08:01.487Z,6.83
2019-01-10T00:10:30.602Z,5.17
2019-01-10T00:12:59.766Z,8.47
2019-01-10T00:15:28.875Z,3.83
2019-01-10T00:18:17.410Z,14.50
2019-01-10T00:20:46.518Z,5.57
2019-01-10T00:23:15.616Z,4.93
2019-01-10T00:25:44.735Z,5.50
2019-01-10T00:28:13.843Z,8.63
2019-01-10T00:30:42.971Z,5.17
2019-01-10T00:33:12.075Z,9.30
2019-01-10T00:35:41.174Z,5.63
2019-01-10T00:38:10.266Z,6.77
2019-01-10T00:40:39.379Z,5.80
2019-01-10T00:43:08.480Z,10.00
2019-01-10T00:45:37.578Z,6.20
2019-01-10T00:48:06.681Z,7.17
2019-01-10T00:50:35.791Z,11.87
2019-01-10T00:53:04.899Z,4.03
2019-01-10T00:55:34.011Z,4.17
2019-01-10T00:58:03.113Z,13.00
2019-01-10T01:00:32.228Z,10.23
2019-01-10T01:03:01.356Z,15.33
2019-01-10T01:05:30.516Z,21.40
2019-01-10T01:07:59.632Z,13.37
2019-01-10T01:10:28.732Z,10.37
2019-01-10T01:12:58.678Z,8.63
2019-01-10T01:15:28.118Z,5.57
2019-01-10T01:17:57.218Z,12.60
2019-01-10T01:20:26.328Z,10.77
2019-01-10T01:22:55.424Z,8.53
2019-01-10T01:25:24.541Z,11.10
2019-01-10T01:27:53.640Z,9.73
2019-01-10T01:30:24.392Z,7.43
2019-01-10T01:32:53.510Z,8.10
2019-01-10T01:35:22.678Z,11.93
2019-01-10T01:37:51.843Z,8.07
2019-01-10T01:40:20.950Z,9.07
2019-01-10T01:42:50.046Z,12.20
2019-01-10T01:45:19.896Z,11.10
2019-01-10T01:47:49.076Z,6.23
2019-01-10T01:50:22.681Z,7.60
2019-01-10T01:52:53.534Z,7.47
2019-01-10T01:55:22.648Z,6.40
2019-01-10T01:57:51.744Z,6.57
2019-01-10T02:00:22.456Z,10.47
2019-01-10T02:02:51.559Z,9.27
2019-01-10T02:05:20.666Z,6.87
2019-01-10T02:07:49.774Z,5.27
2019-01-10T02:10:21.328Z,11.00
2019-01-10T02:12:50.423Z,7.27
2019-01-10T02:15:19.540Z,11.13
2019-01-10T02:17:49.495Z,8.77
2019-01-10T02:20:18.723Z,4.97
2019-01-10T02:22:50.801Z,7.63
2019-01-10T02:25:19.914Z,7.37
2019-01-10T02:27:49.017Z,6.17
2019-01-10T02:30:20.654Z,21.70
2019-01-10T02:32:49.800Z,9.87
2019-01-10T02:35:18.932Z,12.53
2019-01-10T02:37:48.037Z,5.87
2019-01-10T02:40:17.150Z,8.90
2019-01-10T02:42:46.263Z,10.03
2019-01-10T02:45:16.404Z,7.37
2019-01-10T02:47:45.551Z,5.90
2019-01-10T02:50:17.750Z,5.40
2019-01-10T02:52:46.871Z,5.87
2019-01-10T02:55:15.969Z,11.73
2019-01-10T02:57:45.075Z,7.70
2019-01-10T03:00:21.791Z,11.17
2019-01-10T03:02:50.908Z,7.20
2019-01-10T03:05:20.007Z,11.67
2019-01-10T03:07:49.113Z,10.07
2019-01-10T03:10:22.911Z,6.47
2019-01-10T03:12:52.012Z,9.87
2019-01-10T03:15:29.070Z,7.50
2019-01-10T03:17:58.187Z,11.27
2019-01-10T03:20:27.317Z,8.17
2019-01-10T03:22:56.421Z,12.40
2019-01-10T03:25:25.532Z,11.17
2019-01-10T03:27:54.663Z,11.93
2019-01-10T03:30:23.754Z,9.43
2019-01-10T03:32:52.863Z,10.20
2019-01-10T03:35:22.050Z,10.93
2019-01-10T03:37:51.144Z,8.93
2019-01-10T03:40:20.608Z,7.03
2019-01-10T03:42:49.774Z,7.50
2019-01-10T03:45:19.906Z,8.20
2019-01-10T03:47:49.012Z,8.57
2019-01-10T03:50:18.112Z,12.20
2019-01-10T03:52:47.220Z,11.33
2019-01-10T03:55:16.337Z,11.17
2019-01-10T03:57:45.456Z,9.00
2019-01-10T04:00:19.721Z,7.93
2019-01-10T04:02:48.891Z,9.77
2019-01-10T04:05:18.016Z,9.50
2019-01-10T04:07:47.761Z,10.80
2019-01-10T04:10:17.003Z,12.80
2019-01-10T04:12:46.129Z,9.80
2019-01-10T04:15:16.480Z,9.27
2019-01-10T04:17:45.589Z,13.40
2019-01-10T04:20:16.341Z,7.07
2019-01-10T04:22:45.519Z,11.23
2019-01-10T04:25:14.697Z,11.77
2019-01-10T04:27:43.802Z,11.07
2019-01-10T04:30:17.708Z,10.23
2019-01-10T04:32:46.832Z,14.50
2019-01-10T04:35:15.944Z,8.50
2019-01-10T04:37:45.045Z,10.90
2019-01-10T04:40:16.376Z,11.53
2019-01-10T04:42:45.485Z,8.53
2019-01-10T04:45:14.650Z,8.70
2019-01-10T04:47:43.768Z,12.17
2019-01-10T04:50:14.407Z,8.67
2019-01-10T04:52:43.548Z,16.60
2019-01-10T04:55:12.904Z,11.47
2019-01-10T04:57:41.995Z,7.37
2019-01-10T05:00:19.870Z,10.67
2019-01-10T05:02:48.993Z,14.47
2019-01-10T05:05:18.094Z,11.20
2019-01-10T05:07:47.217Z,12.27
2019-01-10T05:10:16.330Z,13.23
2019-01-10T05:12:45.432Z,13.53
2019-01-10T05:15:15.685Z,8.30
2019-01-10T05:17:44.792Z,12.83
2019-01-10T05:20:18.458Z,8.43
2019-01-10T05:22:47.577Z,11.23
2019-01-10T05:25:18.300Z,10.67
2019-01-10T05:27:47.420Z,9.43
2019-01-10T05:30:37.575Z,11.97
2019-01-10T05:33:06.731Z,11.30
2019-01-10T05:35:35.822Z,8.03
2019-01-10T05:38:04.933Z,11.83
2019-01-10T05:40:34.027Z,10.17
2019-01-10T05:43:04.059Z,14.87
2019-01-10T05:45:33.162Z,13.03
2019-01-10T05:48:02.277Z,12.83
2019-01-10T05:50:31.377Z,14.30
2019-01-10T05:53:00.521Z,13.73
2019-01-10T05:55:29.650Z,11.37
2019-01-10T05:57:58.753Z,11.47
2019-01-10T06:00:27.865Z,18.33
2019-01-10T06:02:56.963Z,12.10
2019-01-10T06:05:26.214Z,16.37
2019-01-10T06:07:55.395Z,18.83
2019-01-10T06:10:27.414Z,15.00
2019-01-10T06:12:56.535Z,17.03
2019-01-10T06:15:25.703Z,13.50
2019-01-10T06:18:00.920Z,15.30
2019-01-10T06:20:30.028Z,12.77
2019-01-10T06:22:59.147Z,16.87
2019-01-10T06:25:28.804Z,15.07
2019-01-10T06:27:57.894Z,14.70
2019-01-10T06:30:27.022Z,16.27
2019-01-10T06:32:56.270Z,17.53
2019-01-10T06:35:25.364Z,14.63
2019-01-10T06:37:54.718Z,17.03
2019-01-10T06:40:23.835Z,12.83
2019-01-10T06:42:52.936Z,15.80
2019-01-10T06:45:23.580Z,11.67
2019-01-10T06:47:52.689Z,15.13
2019-01-10T06:50:21.839Z,16.30
2019-01-10T06:52:50.954Z,18.30
2019-01-10T06:55:20.086Z,17.13
2019-01-10T06:57:49.209Z,15.53
2019-01-10T07:00:22.572Z,15.73
2019-01-10T07:02:51.742Z,19.10
2019-01-10T07:05:21.957Z,16.10
2019-01-10T07:07:56.186Z,14.60
2019-01-10T07:10:24.013Z,13.17
2019-01-10T07:12:53.112Z,13.37
2019-01-10T07:15:22.218Z,14.60
2019-01-10T07:17:51.333Z,12.77
2019-01-10T07:20:21.656Z,16.20
2019-01-10T07:22:52.102Z,17.50
2019-01-10T07:25:21.202Z,11.77
2019-01-10T07:27:50.303Z,16.00
2019-01-10T07:30:22.419Z,15.83
2019-01-10T07:32:51.525Z,16.07
2019-01-10T07:35:20.635Z,13.60
2019-01-10T07:37:51.680Z,12.67
2019-01-10T07:40:20.794Z,13.57
2019-01-10T07:42:49.888Z,13.23
2019-01-10T07:45:21.544Z,11.57
2019-01-10T07:47:50.652Z,12.47
2019-01-10T07:50:24.673Z,16.40
2019-01-10T07:52:53.782Z,18.63
2019-01-10T07:55:22.887Z,13.60
2019-01-10T07:57:51.993Z,11.63
2019-01-10T08:00:21.100Z,18.87
2019-01-10T08:02:50.208Z,17.00
2019-01-10T08:05:19.302Z,17.93
2019-01-10T08:07:48.426Z,18.30
2019-01-10T08:10:17.562Z,11.57
2019-01-10T08:12:46.774Z,18.00
2019-01-10T08:15:18.793Z,15.60
2019-01-10T08:17:47.972Z,10.70
2019-01-10T08:20:17.253Z,15.03
2019-01-10T08:22:46.450Z,17.90
2019-01-10T08:25:15.563Z,13.67
2019-01-10T08:27:44.686Z,12.80
2019-01-10T08:30:18.344Z,18.90
2019-01-10T08:32:47.451Z,18.57
2019-01-10T08:35:18.686Z,13.57
2019-01-10T08:37:47.812Z,18.63
2019-01-10T08:40:16.937Z,18.90
2019-01-10T08:42:46.046Z,15.13
2019-01-10T08:45:21.454Z,15.73
2019-01-10T08:47:45.948Z,17.87
2019-01-10T08:50:18.066Z,12.43
2019-01-10T08:52:47.183Z,16.30
2019-01-10T08:55:16.276Z,12.50
2019-01-10T08:57:45.451Z,15.43
2019-01-10T09:00:19.483Z,18.27
2019-01-10T09:02:48.605Z,16.77
2019-01-10T09:05:17.698Z,18.27
2019-01-10T09:07:46.805Z,13.73
2019-01-10T09:10:21.365Z,11.60
2019-01-10T09:12:50.491Z,13.73
2019-01-10T09:15:25.125Z,13.97
2019-01-10T09:17:50.404Z,18.07
2019-01-10T09:20:19.504Z,20.40
2019-01-10T09:22:48.632Z,12.07
2019-01-10T09:25:37.153Z,13.37
2019-01-10T09:28:06.298Z,13.33
2019-01-10T09:30:35.407Z,20.20
2019-01-10T09:33:04.525Z,19.47
2019-01-10T09:35:33.623Z,11.47
2019-01-10T09:38:02.732Z,16.43
2019-01-10T09:40:31.834Z,12.67
2019-01-10T09:43:00.947Z,16.83
2019-01-10T09:45:30.043Z,15.50
2019-01-10T09:47:59.149Z,18.77
2019-01-10T09:50:28.245Z,14.10
2019-01-10T09:52:57.347Z,12.60
2019-01-10T09:55:26.455Z,14.53
2019-01-10T09:57:55.569Z,15.97
2019-01-10T10:00:26.712Z,15.77
2019-01-10T10:02:55.939Z,17.20
2019-01-10T10:05:25.007Z,11.47
2019-01-10T10:07:54.124Z,21.33
2019-01-10T10:10:23.221Z,13.03
2019-01-10T10:12:52.318Z,16.57
2019-01-10T10:15:21.431Z,15.77
2019-01-10T10:17:50.557Z,17.40
2019-01-10T10:20:21.479Z,18.70
2019-01-10T10:22:50.589Z,15.90
2019-01-10T10:25:19.706Z,17.10
2019-01-10T10:27:48.817Z,15.10
2019-01-10T10:30:19.385Z,16.90
2019-01-10T10:32:48.483Z,16.53
2019-01-10T10:35:17.593Z,13.77
2019-01-10T10:37:46.704Z,14.23
2019-01-10T10:40:17.419Z,17.47
2019-01-10T10:42:47.065Z,21.63
2019-01-10T10:45:17.909Z,16.43
2019-01-10T10:47:46.994Z,13.87
2019-01-10T10:50:21.087Z,18.17
2019-01-10T10:52:50.205Z,20.03
2019-01-10T10:55:19.325Z,16.00
2019-01-10T10:57:48.427Z,16.17
2019-01-10T11:00:23.159Z,16.97
2019-01-10T11:02:52.266Z,15.83
2019-01-10T11:05:21.435Z,17.47
2019-01-10T11:07:50.560Z,15.00
2019-01-10T11:10:20.319Z,18.00
2019-01-10T11:12:49.408Z,14.07
2019-01-10T11:15:18.526Z,19.03
2019-01-10T11:17:47.886Z,17.97
2019-01-10T11:20:20.683Z,17.70
2019-01-10T11:22:50.034Z,20.50
2019-01-10T11:25:21.401Z,17.07
2019-01-10T11:27:50.496Z,13.27
2019-01-10T11:30:20.450Z,13.13
2019-01-10T11:32:49.553Z,17.30
2019-01-10T11:35:18.676Z,10.63
2019-01-10T11:37:47.780Z,12.57
2019-01-10T11:40:18.829Z,9.77
2019-01-10T11:42:48.205Z,14.77
2019-01-10T11:45:21.925Z,10.73
2019-01-10T11:47:52.048Z,14.10
2019-01-10T11:50:21.160Z,16.73
2019-01-10T11:52:50.267Z,12.73
2019-01-10T11:55:19.376Z,11.63
2019-01-10T11:57:49.663Z,9.20
2019-01-10T12:00:21.844Z,14.27
2019-01-10T12:02:50.936Z,10.70
2019-01-10T12:05:20.049Z,15.40
2019-01-10T12:07:49.148Z,15.97
2019-01-10T12:10:18.371Z,11.67
2019-01-10T12:12:47.480Z,14.83
2019-01-10T12:15:16.599Z,15.77
2019-01-10T12:17:45.692Z,10.37
2019-01-10T12:20:16.951Z,11.20
2019-01-10T12:22:46.590Z,13.17
2019-01-10T12:25:17.339Z,12.87
2019-01-10T12:27:46.573Z,15.20
2019-01-10T12:30:18.254Z,17.93
2019-01-10T12:32:47.362Z,12.37
2019-01-10T12:35:16.466Z,14.20
2019-01-10T12:37:45.677Z,13.17
2019-01-10T12:40:15.799Z,18.10
2019-01-10T12:42:44.909Z,12.90
2019-01-10T12:45:21.027Z,12.03
2019-01-10T12:47:50.132Z,13.47
2019-01-10T12:50:24.727Z,13.50
2019-01-10T12:52:53.839Z,9.67
2019-01-10T12:55:22.935Z,12.13
2019-01-10T12:57:52.102Z,11.07
2019-01-10T13:00:23.139Z,9.73
2019-01-10T13:02:53.366Z,15.03
2019-01-10T13:05:24.093Z,12.40
2019-01-10T13:07:53.267Z,12.77
2019-01-10T13:10:22.409Z,10.90
2019-01-10T13:12:51.528Z,12.67
2019-01-10T13:15:22.643Z,13.07
2019-01-10T13:17:51.772Z,12.13
2019-01-10T13:20:20.885Z,14.33
2019-01-10T13:22:49.989Z,8.90
2019-01-10T13:25:20.034Z,11.57
2019-01-10T13:27:49.689Z,11.73
2019-01-10T13:30:21.294Z,7.23
2019-01-10T13:32:50.477Z,10.97
2019-01-10T13:35:19.575Z,12.43
2019-01-10T13:37:48.695Z,13.20
2019-01-10T13:40:17.800Z,8.50
2019-01-10T13:42:46.906Z,9.30
2019-01-10T13:45:17.134Z,12.73
2019-01-10T13:47:47.778Z,9.93
2019-01-10T13:50:19.115Z,14.43
2019-01-10T13:52:48.218Z,10.87
2019-01-10T13:55:18.771Z,15.87
2019-01-10T13:57:47.894Z,9.80
2019-01-10T14:00:25.891Z,9.33
2019-01-10T14:02:54.993Z,12.30
2019-01-10T14:05:25.064Z,10.47
2019-01-10T14:07:54.194Z,10.33
2019-01-10T14:10:23.318Z,14.47
2019-01-10T14:12:52.421Z,20.67
2019-01-10T14:15:24.430Z,12.27
2019-01-10T14:17:53.538Z,9.20
2019-01-10T14:20:22.670Z,11.50
2019-01-10T14:22:51.969Z,13.30
2019-01-10T14:25:22.417Z,9.47
2019-01-10T14:27:59.153Z,13.30
2019-01-10T14:30:28.527Z,13.07
2019-01-10T14:32:57.673Z,15.87
2019-01-10T14:35:27.953Z,13.10
2019-01-10T14:37:57.081Z,12.53
2019-01-10T14:40:27.006Z,13.70
2019-01-10T14:42:56.392Z,17.07
2019-01-10T14:45:25.539Z,12.90
2019-01-10T14:47:54.754Z,18.87
2019-01-10T14:50:23.871Z,20.33
2019-01-10T14:52:52.993Z,19.33
2019-01-10T14:55:23.597Z,17.83
2019-01-10T14:57:52.820Z,16.07
2019-01-10T15:00:23.645Z,16.23
2019-01-10T15:02:52.770Z,16.83
2019-01-10T15:05:21.871Z,18.77
2019-01-10T15:07:50.983Z,17.30
2019-01-10T15:10:21.070Z,20.87
2019-01-10T15:12:50.293Z,18.30
2019-01-10T15:15:20.919Z,19.47
2019-01-10T15:17:50.098Z,18.47
2019-01-10T15:20:21.748Z,11.70
2019-01-10T15:22:50.857Z,16.83
2019-01-10T15:25:19.970Z,14.03
2019-01-10T15:27:49.081Z,13.17
2019-01-10T15:30:25.969Z,18.43
2019-01-10T15:32:55.094Z,13.93
2019-01-10T15:35:24.266Z,24.53
2019-01-10T15:37:54.346Z,13.50
2019-01-10T15:40:28.983Z,14.83
2019-01-10T15:42:58.095Z,16.67
2019-01-10T15:45:27.217Z,22.10
2019-01-10T15:47:57.224Z,12.90
2019-01-10T15:50:38.647Z,21.53
2019-01-10T15:53:07.756Z,27.83
2019-01-10T15:55:37.111Z,28.23
2019-01-10T15:58:06.335Z,32.07
2019-01-10T16:00:35.460Z,33.20
2019-01-10T16:03:04.573Z,29.27
2019-01-10T16:05:33.680Z,33.00
2019-01-10T16:08:02.781Z,36.47
2019-01-10T16:10:32.891Z,31.20
2019-01-10T16:13:01.992Z,28.63
2019-01-10T16:15:31.098Z,18.47
2019-01-10T16:18:00.199Z,16.17
2019-01-10T16:20:29.319Z,17.43
2019-01-10T16:22:58.433Z,21.50
2019-01-10T16:25:27.559Z,22.63
2019-01-10T16:27:56.658Z,19.40
2019-01-10T16:30:27.487Z,18.67
2019-01-10T16:32:56.703Z,20.60
2019-01-10T16:35:25.838Z,17.43
2019-01-10T16:37:54.931Z,23.03
2019-01-10T16:40:24.070Z,24.93
2019-01-10T16:42:53.174Z,28.10
2019-01-10T16:45:24.227Z,25.27
2019-01-10T16:47:53.523Z,24.67
2019-01-10T16:50:22.635Z,28.53
2019-01-10T16:52:51.802Z,26.53
2019-01-10T16:55:20.919Z,24.17
2019-01-10T16:57:50.020Z,23.17
2019-01-10T17:00:27.290Z,21.23
2019-01-10T17:02:56.413Z,23.40
2019-01-10T17:05:25.609Z,18.87
2019-01-10T17:07:56.327Z,23.13
2019-01-10T17:10:25.460Z,20.87
2019-01-10T17:12:54.574Z,20.13
2019-01-10T17:15:23.700Z,35.20
2019-01-10T17:17:52.849Z,29.20
2019-01-10T17:20:23.995Z,30.93
2019-01-10T17:22:53.098Z,29.80
2019-01-10T17:25:22.305Z,27.30
2019-01-10T17:27:51.468Z,23.93
2019-01-10T17:30:23.001Z,20.37
2019-01-10T17:32:52.108Z,27.27
2019-01-10T17:35:29.434Z,26.77
2019-01-10T17:37:58.807Z,28.07
2019-01-10T17:40:27.937Z,28.43
2019-01-10T17:42:57.213Z,28.50
2019-01-10T17:45:29.303Z,21.23
2019-01-10T17:47:58.572Z,25.63
2019-01-10T17:50:27.788Z,26.47
2019-01-10T17:52:56.972Z,24.90
2019-01-10T17:55:26.143Z,19.27
2019-01-10T17:57:55.459Z,26.30
2019-01-10T18:00:27.855Z,20.40
2019-01-10T18:02:58.386Z,25.40
2019-01-10T18:05:27.810Z,25.47
2019-01-10T18:07:57.042Z,23.97
2019-01-10T18:10:26.181Z,27.37
2019-01-10T18:12:55.303Z,25.67
2019-01-10T18:15:26.602Z,32.73
2019-01-10T18:17:55.709Z,22.40
2019-01-10T18:20:27.822Z,32.30
2019-01-10T18:22:57.008Z,25.23
2019-01-10T18:25:26.110Z,24.83
2019-01-10T18:27:55.221Z,22.27
2019-01-10T18:30:24.470Z,27.77
2019-01-10T18:32:53.641Z,20.30
2019-01-10T18:35:26.583Z,24.10
2019-01-10T18:37:53.895Z,26.20
2019-01-10T18:40:23.004Z,23.67
2019-01-10T18:42:52.130Z,24.20
2019-01-10T18:45:24.010Z,26.40
2019-01-10T18:47:56.911Z,26.80
2019-01-10T18:50:24.559Z,33.27
2019-01-10T18:52:53.699Z,29.93
2019-01-10T18:55:22.817Z,24.83
2019-01-10T18:57:51.953Z,28.07
2019-01-10T19:00:28.779Z,33.27
2019-01-10T19:02:58.291Z,32.70
2019-01-10T19:05:27.819Z,25.13
2019-01-10T19:07:57.011Z,31.97
2019-01-10T19:10:26.132Z,33.23
2019-01-10T19:12:55.409Z,34.57
2019-01-10T19:15:24.587Z,27.47
2019-01-10T19:17:53.707Z,26.07
2019-01-10T19:20:25.438Z,30.13
2019-01-10T19:22:55.876Z,28.57
2019-01-10T19:25:25.057Z,24.07
2019-01-10T19:27:54.181Z,27.80
2019-01-10T19:30:25.531Z,23.73
2019-01-10T19:32:54.643Z,24.23
2019-01-10T19:35:23.744Z,31.47
2019-01-10T19:37:52.873Z,26.07
2019-01-10T19:40:23.145Z,22.53
2019-01-10T19:42:52.309Z,27.93
2019-01-10T19:45:22.123Z,28.83
2019-01-10T19:47:51.391Z,22.63
2019-01-10T19:50:22.523Z,23.20
2019-01-10T19:52:51.635Z,25.97
2019-01-10T19:55:21.859Z,23.50
2019-01-10T19:57:51.513Z,29.50
2019-01-10T20:00:23.508Z,24.50
2019-01-10T20:02:52.858Z,25.13
2019-01-10T20:05:21.975Z,29.67
2019-01-10T20:07:51.082Z,29.07
2019-01-10T20:10:20.183Z,28.63
2019-01-10T20:12:50.135Z,24.57
2019-01-10T20:15:19.242Z,30.90
2019-01-10T20:17:48.421Z,27.87
2019-01-10T20:20:37.515Z,28.70
2019-01-10T20:23:07.449Z,29.37
2019-01-10T20:25:37.592Z,27.83
2019-01-10T20:28:06.695Z,38.17
2019-01-10T20:30:35.977Z,25.43
2019-01-10T20:33:05.096Z,26.07
2019-01-10T20:35:34.192Z,33.33
2019-01-10T20:38:03.391Z,35.43
2019-01-10T20:40:32.576Z,31.57
2019-01-10T20:43:01.738Z,28.63
2019-01-10T20:45:30.919Z,39.73
2019-01-10T20:48:00.086Z,31.23
2019-01-10T20:50:29.274Z,35.47
2019-01-10T20:52:58.438Z,38.57
2019-01-10T20:55:27.616Z,38.30
2019-01-10T20:57:56.722Z,37.23
2019-01-10T21:00:27.325Z,38.03
2019-01-10T21:02:56.430Z,36.03
2019-01-10T21:05:26.891Z,43.90
2019-01-10T21:07:55.995Z,39.93
2019-01-10T21:10:25.108Z,46.57
2019-01-10T21:12:54.281Z,41.50
2019-01-10T21:15:30.208Z,38.37
2019-01-10T21:17:59.313Z,39.40
2019-01-10T21:20:28.435Z,44.30
2019-01-10T21:22:57.550Z,37.23
2019-01-10T21:25:26.734Z,38.73
2019-01-10T21:27:55.911Z,41.13
2019-01-10T21:30:25.030Z,39.73
2019-01-10T21:32:54.141Z,39.53
2019-01-10T21:35:23.278Z,39.83
2019-01-10T21:37:52.375Z,43.70
2019-01-10T21:40:23.037Z,42.70
2019-01-10T21:42:53.735Z,49.00
2019-01-10T21:45:23.548Z,39.87
2019-01-10T21:47:53.721Z,40.97
2019-01-10T21:50:24.896Z,45.53
2019-01-10T21:52:53.995Z,40.30
2019-01-10T21:55:23.179Z,43.10
2019-01-10T21:57:53.370Z,42.60
2019-01-10T22:00:25.243Z,44.10
2019-01-10T22:02:54.726Z,47.20
2019-01-10T22:05:23.862Z,44.43
2019-01-10T22:07:54.020Z,39.60
2019-01-10T22:10:23.137Z,40.03
2019-01-10T22:12:52.311Z,42.70
2019-01-10T22:15:21.449Z,44.63
2019-01-10T22:17:50.544Z,39.07
2019-01-10T22:20:21.099Z,43.53
2019-01-10T22:22:50.210Z,40.20
2019-01-10T22:25:19.507Z,41.30
2019-01-10T22:27:48.698Z,43.70
2019-01-10T22:30:20.582Z,39.70
2019-01-10T22:32:50.067Z,38.37
2019-01-10T22:35:20.599Z,42.23
2019-01-10T22:37:49.772Z,42.27
2019-01-10T22:40:20.516Z,37.00
2019-01-10T22:42:49.637Z,37.53
2019-01-10T22:45:18.754Z,35.27
2019-01-10T22:47:47.932Z,41.33
2019-01-10T22:50:19.178Z,36.67
2019-01-10T22:52:48.300Z,41.13
2019-01-10T22:55:17.563Z,34.43
2019-01-10T22:57:46.670Z,40.03
2019-01-10T23:00:39.029Z,35.73
2019-01-10T23:03:08.755Z,34.57
2019-01-10T23:05:44.214Z,33.87
2019-01-10T23:08:14.299Z,35.40
2019-01-10T23:10:43.407Z,32.03
2019-01-10T23:13:12.521Z,35.77
2019-01-10T23:15:41.632Z,31.73
2019-01-10T23:18:10.821Z,35.87
2019-01-10T23:20:39.925Z,29.97
2019-01-10T23:23:11.346Z,30.77
2019-01-10T23:25:40.441Z,31.07
2019-01-10T23:28:09.575Z,33.83
2019-01-10T23:30:54.781Z,31.27
2019-01-10T23:33:24.721Z,28.63
2019-01-10T23:35:58.390Z,30.27
2019-01-10T23:38:28.644Z,28.20
2019-01-10T23:40:58.396Z,28.27
2019-01-10T23:43:27.516Z,30.43
2019-01-10T23:45:56.697Z,26.17
2019-01-10T23:48:25.821Z,27.63
2019-01-10T23:50:54.942Z,25.13
2019-01-10T23:53:24.043Z,22.83
2019-01-10T23:55:53.147Z,21.80
2019-01-10T23:58:22.246Z,23.30
